Time;durP1;ratioP1;P1;durP2;ratioP2;P2;SDS_P1;SDS_P2;PMS_P1;PMS_P2;Temp;Humidity;BMP_temperature;BMP_pressure;BME280_temperature;BME280_humidity;BME280_pressure;Samples;Min_cycle;Max_cycle;Signal;HPM_P1;HPM_P2
2022/11/12 00:00:30;;;;;;;8.25;7.68;;;;;;;;;;4992033;28;20037;-60
2022/11/12 00:02:55;;;;;;;9.93;9.23;;;;;;;;;;4991634;28;20030;-60
2022/11/12 00:05:21;;;;;;;8.90;8.25;;;;;;;;;;4992802;28;20124;-59
2022/11/12 00:07:46;;;;;;;9.30;8.70;;;;;;;;;;4993751;28;20090;-59
2022/11/12 00:10:12;;;;;;;8.73;8.18;;;;;;;;;;4991297;28;20034;-60
2022/11/12 00:12:37;;;;;;;9.32;8.63;;;;;;;;;;4987528;28;20021;-60
2022/11/12 00:15:03;;;;;;;9.25;8.65;;;;;;;;;;4992897;28;20203;-59
2022/11/12 00:17:28;;;;;;;8.68;8.13;;;;;;;;;;4991037;28;20033;-59
2022/11/12 00:19:54;;;;;;;8.35;7.82;;;;;;;;;;4992657;28;20588;-60
2022/11/12 00:22:20;;;;;;;9.20;8.60;;;;;;;;;;4992757;28;20030;-60
2022/11/12 00:24:45;;;;;;;8.43;7.82;;;;;;;;;;4989907;28;20429;-60
2022/11/12 00:27:11;;;;;;;7.78;7.28;;;;;;;;;;4998531;28;20029;-59
2022/11/12 00:29:37;;;;;;;8.50;7.90;;;;;;;;;;4992965;28;20034;-59
2022/11/12 00:32:05;;;;;;;7.55;7.05;;;;;;;;;;4996829;28;20459;-59
2022/11/12 00:34:30;;;;;;;7.72;7.22;;;;;;;;;;4996627;28;20092;-59
2022/11/12 00:36:56;;;;;;;8.18;7.63;;;;;;;;;;4995826;28;20356;-59
2022/11/12 00:39:21;;;;;;;8.30;7.63;;;;;;;;;;4994329;28;20515;-59
2022/11/12 00:41:46;;;;;;;9.05;8.38;;;;;;;;;;4992202;28;20125;-59
2022/11/12 00:44:12;;;;;;;8.48;7.88;;;;;;;;;;4996464;28;20057;-59
2022/11/12 00:46:37;;;;;;;7.50;6.95;;;;;;;;;;4995236;28;20494;-59
2022/11/12 00:49:02;;;;;;;8.38;7.78;;;;;;;;;;4994583;28;20423;-59
2022/11/12 00:51:28;;;;;;;7.32;6.82;;;;;;;;;;4995490;28;20034;-59
2022/11/12 00:53:53;;;;;;;7.13;6.63;;;;;;;;;;4996199;28;20030;-59
2022/11/12 00:56:18;;;;;;;8.30;7.70;;;;;;;;;;4995292;28;20038;-59
2022/11/12 00:58:44;;;;;;;8.05;7.45;;;;;;;;;;4993416;28;20034;-59
2022/11/12 01:01:12;;;;;;;7.68;7.18;;;;;;;;;;4995999;28;20437;-59
2022/11/12 01:03:39;;;;;;;7.75;7.10;;;;;;;;;;4993998;28;20507;-59
2022/11/12 01:06:10;;;;;;;7.50;7.00;;;;;;;;;;4993857;28;20030;-59
2022/11/12 01:08:36;;;;;;;8.55;7.95;;;;;;;;;;4993881;28;20035;-59
2022/11/12 01:11:11;;;;;;;7.47;6.97;;;;;;;;;;4997369;28;20445;-59
2022/11/12 01:13:39;;;;;;;8.57;7.97;;;;;;;;;;4996279;28;20038;-59
2022/11/12 01:16:10;;;;;;;7.72;7.22;;;;;;;;;;4993153;28;20414;-59
2022/11/12 01:18:35;;;;;;;9.52;8.82;;;;;;;;;;4992862;28;20364;-59
2022/11/12 01:21:03;;;;;;;8.68;8.07;;;;;;;;;;4993502;28;20030;-59
2022/11/12 01:23:31;;;;;;;9.00;8.40;;;;;;;;;;4991183;28;20104;-59
2022/11/12 01:25:56;;;;;;;10.10;9.40;;;;;;;;;;4996035;28;20057;-59
2022/11/12 01:28:21;;;;;;;9.90;9.10;;;;;;;;;;4992967;28;20246;-59
2022/11/12 01:30:47;;;;;;;8.07;7.57;;;;;;;;;;4994308;28;20022;-59
2022/11/12 01:33:12;;;;;;;8.23;7.72;;;;;;;;;;4997717;28;20475;-59
2022/11/12 01:35:38;;;;;;;7.82;7.32;;;;;;;;;;4980124;28;20475;-59
2022/11/12 01:38:03;;;;;;;7.63;7.13;;;;;;;;;;4993819;28;20050;-59
2022/11/12 01:40:28;;;;;;;7.95;7.45;;;;;;;;;;4995013;28;20095;-59
2022/11/12 01:42:54;;;;;;;9.60;8.60;;;;;;;;;;4994394;28;20425;-59
2022/11/12 01:45:19;;;;;;;8.57;7.97;;;;;;;;;;4993051;28;20061;-59
2022/11/12 01:47:48;;;;;;;8.35;7.85;;;;;;;;;;4993518;28;20068;-59
2022/11/12 01:50:15;;;;;;;9.48;8.68;;;;;;;;;;4994666;28;20049;-59
2022/11/12 01:52:47;;;;;;;8.82;8.23;;;;;;;;;;4990682;28;20054;-59
2022/11/12 01:55:17;;;;;;;10.35;9.65;;;;;;;;;;4995510;28;20369;-59
2022/11/12 01:57:58;;;;;;;10.13;9.43;;;;;;;;;;4994111;28;20177;-59
2022/11/12 02:00:24;;;;;;;;;;;;;;;;;;4994825;28;20033;-59
2022/11/12 02:02:56;;;;;;;9.85;9.25;;;;;;;;;;4992155;28;20258;-59
2022/11/12 02:05:23;;;;;;;8.55;7.97;;;;;;;;;;4994009;28;20519;-59
2022/11/12 02:07:51;;;;;;;10.10;9.50;;;;;;;;;;4993409;28;20117;-59
2022/11/12 02:10:16;;;;;;;10.02;9.35;;;;;;;;;;4993337;28;20033;-59
2022/11/12 02:15:26;;;;;;;9.80;9.18;;;;;;;;;;4991032;28;20108;-59
2022/11/12 02:17:52;;;;;;;10.20;9.40;;;;;;;;;;4989809;28;20109;-59
2022/11/12 02:20:17;;;;;;;9.55;8.95;;;;;;;;;;4994021;28;20427;-59
2022/11/12 02:22:43;;;;;;;9.57;8.88;;;;;;;;;;4992007;28;20042;-59
2022/11/12 02:25:16;;;;;;;9.50;8.90;;;;;;;;;;4991533;28;20145;-59
2022/11/12 02:27:42;;;;;;;9.82;9.23;;;;;;;;;;4993344;28;20392;-59
2022/11/12 02:30:08;;;;;;;9.90;9.20;;;;;;;;;;4983476;28;20474;-59
2022/11/12 02:32:34;;;;;;;11.32;10.40;;;;;;;;;;4993002;28;20057;-59
2022/11/12 02:34:59;;;;;;;9.63;9.02;;;;;;;;;;4992701;28;20026;-59
2022/11/12 02:37:24;;;;;;;10.93;10.10;;;;;;;;;;4992956;28;20456;-59
2022/11/12 02:39:50;;;;;;;10.50;9.80;;;;;;;;;;4993940;28;20501;-59
2022/11/12 02:42:15;;;;;;;9.07;8.48;;;;;;;;;;4989828;28;20510;-59
2022/11/12 02:44:40;;;;;;;8.60;8.00;;;;;;;;;;4991179;28;20442;-59
2022/11/12 02:47:06;;;;;;;9.35;8.75;;;;;;;;;;4993692;28;20113;-59
2022/11/12 02:49:31;;;;;;;9.20;8.60;;;;;;;;;;4992506;28;20440;-60
2022/11/12 02:51:56;;;;;;;8.40;7.80;;;;;;;;;;4992049;28;20192;-60
2022/11/12 02:54:22;;;;;;;8.43;7.82;;;;;;;;;;4989704;28;20374;-60
2022/11/12 02:56:47;;;;;;;8.57;7.88;;;;;;;;;;4991063;28;20121;-60
2022/11/12 02:59:12;;;;;;;8.52;7.93;;;;;;;;;;4992645;28;20506;-60
2022/11/12 03:01:38;;;;;;;8.40;7.82;;;;;;;;;;4992853;28;20038;-60
2022/11/12 03:04:03;;;;;;;8.18;7.68;;;;;;;;;;4992510;28;20033;-59
2022/11/12 03:06:28;;;;;;;7.75;7.25;;;;;;;;;;4992344;28;20164;-60
2022/11/12 03:08:54;;;;;;;7.55;7.05;;;;;;;;;;4992651;28;20034;-60
2022/11/12 03:11:19;;;;;;;8.38;7.72;;;;;;;;;;4990756;28;20025;-59
2022/11/12 03:13:44;;;;;;;9.20;8.60;;;;;;;;;;4993303;28;20038;-59
2022/11/12 03:16:10;;;;;;;7.80;7.30;;;;;;;;;;4993183;28;20026;-60
2022/11/12 03:18:36;;;;;;;9.45;8.85;;;;;;;;;;4993837;28;20811;-60
2022/11/12 03:21:03;;;;;;;7.30;6.80;;;;;;;;;;4988376;28;20453;-60
2022/11/12 03:23:28;;;;;;;8.07;7.50;;;;;;;;;;4991956;28;20460;-60
2022/11/12 03:25:54;;;;;;;7.05;6.55;;;;;;;;;;4993773;28;20069;-60
2022/11/12 03:28:19;;;;;;;7.90;7.40;;;;;;;;;;4990569;28;20022;-60
2022/11/12 03:30:45;;;;;;;8.20;7.60;;;;;;;;;;4991732;28;20026;-60
2022/11/12 03:33:13;;;;;;;7.82;7.32;;;;;;;;;;4990487;28;20188;-60
2022/11/12 03:35:39;;;;;;;8.77;8.18;;;;;;;;;;4994928;28;20066;-60
2022/11/12 03:38:05;;;;;;;7.68;7.13;;;;;;;;;;4993607;28;20460;-60
2022/11/12 03:40:31;;;;;;;8.57;8.00;;;;;;;;;;4989028;28;20392;-60
2022/11/12 03:42:57;;;;;;;8.07;7.57;;;;;;;;;;4989152;28;20061;-60
2022/11/12 03:45:24;;;;;;;8.98;8.38;;;;;;;;;;4994038;28;20022;-61
2022/11/12 03:47:52;;;;;;;9.23;8.63;;;;;;;;;;4992607;28;20058;-60
2022/11/12 03:50:20;;;;;;;11.27;10.48;;;;;;;;;;4990601;28;20786;-60
2022/11/12 03:52:47;;;;;;;9.55;8.95;;;;;;;;;;4989978;28;20048;-60
2022/11/12 03:55:14;;;;;;;8.98;8.38;;;;;;;;;;4993155;28;20076;-60
2022/11/12 03:57:40;;;;;;;9.40;8.75;;;;;;;;;;4991561;28;20490;-60
2022/11/12 04:00:07;;;;;;;8.23;7.68;;;;;;;;;;4990192;28;20022;-60
2022/11/12 04:02:32;;;;;;;8.30;7.70;;;;;;;;;;4988883;28;20114;-60
2022/11/12 04:10:25;;;;;;;8.05;7.50;;;;;;;;;;4995174;28;20673;-59
2022/11/12 04:15:34;;;;;;;8.13;7.53;;;;;;;;;;4996048;28;20036;-60
2022/11/12 04:23:27;;;;;;;7.97;7.47;;;;;;;;;;4995366;28;20117;-60
2022/11/12 04:28:36;;;;;;;7.85;7.25;;;;;;;;;;4995283;28;20510;-60
2022/11/12 04:31:02;;;;;;;6.90;6.40;;;;;;;;;;4996075;28;20030;-60
2022/11/12 04:33:27;;;;;;;8.07;7.47;;;;;;;;;;5000674;28;20476;-59
2022/11/12 04:35:52;;;;;;;7.18;6.68;;;;;;;;;;4991100;28;20096;-60
2022/11/12 04:38:18;;;;;;;7.57;7.07;;;;;;;;;;4994230;28;20057;-60
2022/11/12 04:46:11;;;;;;;7.55;7.05;;;;;;;;;;4995201;28;20022;-60
2022/11/12 04:48:36;;;;;;;7.63;7.03;;;;;;;;;;4992863;28;20037;-60
2022/11/12 04:52:03;;;;;;;7.18;6.68;;;;;;;;;;4993393;28;20431;-59
2022/11/12 04:53:49;;;;;;;8.25;7.65;;;;;;;;;;4996067;28;20038;-59
2022/11/12 04:56:14;;;;;;;7.97;7.47;;;;;;;;;;4993111;28;20420;-60
2022/11/12 04:58:40;;;;;;;7.72;7.18;;;;;;;;;;4995715;28;20038;-60
2022/11/12 05:01:05;;;;;;;8.05;7.45;;;;;;;;;;4993442;28;20112;-60
2022/11/12 05:03:30;;;;;;;8.02;7.53;;;;;;;;;;4997287;28;20041;-59
2022/11/12 05:06:03;;;;;;;6.97;6.47;;;;;;;;;;4994676;28;20380;-60
2022/11/12 05:08:28;;;;;;;7.90;7.35;;;;;;;;;;4995411;28;20291;-59
2022/11/12 05:10:54;;;;;;;7.70;7.20;;;;;;;;;;4992534;28;20306;-59
2022/11/12 05:13:19;;;;;;;8.15;7.60;;;;;;;;;;4992598;28;20352;-59
2022/11/12 05:15:45;;;;;;;7.80;7.30;;;;;;;;;;4990887;28;20069;-60
2022/11/12 05:18:10;;;;;;;7.82;7.22;;;;;;;;;;4993329;28;20061;-59
2022/11/12 05:20:35;;;;;;;8.52;7.95;;;;;;;;;;4996895;28;20029;-59
2022/11/12 05:23:01;;;;;;;8.00;7.40;;;;;;;;;;4996443;28;20041;-59
2022/11/12 05:25:26;;;;;;;7.45;6.95;;;;;;;;;;4993734;28;20045;-59
2022/11/12 05:27:51;;;;;;;8.00;7.40;;;;;;;;;;4994295;28;20083;-59
2022/11/12 05:30:17;;;;;;;8.15;7.65;;;;;;;;;;4993135;28;20117;-59
2022/11/12 05:32:42;;;;;;;7.97;7.47;;;;;;;;;;4994858;28;20324;-59
2022/11/12 05:35:07;;;;;;;7.88;7.38;;;;;;;;;;4995536;28;20033;-59
2022/11/12 05:37:33;;;;;;;8.60;8.00;;;;;;;;;;4993308;28;20294;-59
2022/11/12 05:39:58;;;;;;;7.43;6.93;;;;;;;;;;4995219;28;20490;-59
2022/11/12 05:42:24;;;;;;;7.80;7.20;;;;;;;;;;4995758;28;20034;-59
2022/11/12 05:44:49;;;;;;;7.93;7.32;;;;;;;;;;4991195;28;20030;-59
2022/11/12 05:47:15;;;;;;;7.05;6.55;;;;;;;;;;4996034;28;20023;-59
2022/11/12 05:49:40;;;;;;;13.48;7.88;;;;;;;;;;4994845;28;20341;-59
2022/11/12 05:52:06;;;;;;;7.10;6.60;;;;;;;;;;4991922;28;20029;-59
2022/11/12 05:54:31;;;;;;;8.02;7.47;;;;;;;;;;4991435;28;20419;-59
2022/11/12 05:56:57;;;;;;;7.55;7.05;;;;;;;;;;4996758;28;20364;-59
2022/11/12 05:59:23;;;;;;;8.10;7.50;;;;;;;;;;4994434;28;20034;-59
2022/11/12 06:01:48;;;;;;;7.00;6.50;;;;;;;;;;4994244;28;20034;-59
2022/11/12 06:04:14;;;;;;;7.85;7.30;;;;;;;;;;4992712;28;20022;-59
2022/11/12 06:06:41;;;;;;;7.55;7.05;;;;;;;;;;4990702;28;20041;-59
2022/11/12 06:09:07;;;;;;;8.65;8.02;;;;;;;;;;4994513;28;20033;-59
2022/11/12 06:11:33;;;;;;;8.65;7.95;;;;;;;;;;4993947;28;20026;-59
2022/11/12 06:13:59;;;;;;;7.63;7.13;;;;;;;;;;4992942;28;20034;-59
2022/11/12 06:16:24;;;;;;;7.25;6.75;;;;;;;;;;4993886;28;20030;-60
2022/11/12 06:18:50;;;;;;;8.13;7.55;;;;;;;;;;4992619;28;20117;-59
2022/11/12 06:21:26;;;;;;;8.50;7.90;;;;;;;;;;4993087;28;20058;-59
2022/11/12 06:23:56;;;;;;;8.48;7.85;;;;;;;;;;4992791;28;20037;-60
2022/11/12 06:26:24;;;;;;;7.50;7.00;;;;;;;;;;4994046;28;20022;-60
2022/11/12 06:28:49;;;;;;;8.13;7.53;;;;;;;;;;4991439;28;20120;-60
2022/11/12 06:31:15;;;;;;;8.60;7.90;;;;;;;;;;4989645;28;20073;-60
2022/11/12 06:33:41;;;;;;;7.75;7.25;;;;;;;;;;4994224;28;20033;-60
2022/11/12 06:36:09;;;;;;;9.70;9.00;;;;;;;;;;4994692;28;21027;-60
2022/11/12 06:38:37;;;;;;;8.50;7.90;;;;;;;;;;4992284;28;20030;-60
2022/11/12 06:41:03;;;;;;;9.75;9.15;;;;;;;;;;4993079;28;20129;-60
2022/11/12 06:43:30;;;;;;;8.27;7.78;;;;;;;;;;4990478;28;20129;-59
2022/11/12 06:46:00;;;;;;;8.70;8.10;;;;;;;;;;4992492;28;20030;-60
2022/11/12 06:48:27;;;;;;;7.75;7.25;;;;;;;;;;4992227;28;20100;-60
2022/11/12 06:50:52;;;;;;;7.65;7.05;;;;;;;;;;4992029;28;20100;-60
2022/11/12 06:53:17;;;;;;;8.40;7.88;;;;;;;;;;4993158;28;20500;-59
2022/11/12 06:55:43;;;;;;;8.40;7.80;;;;;;;;;;4991177;28;20022;-60
2022/11/12 06:58:08;;;;;;;9.30;8.60;;;;;;;;;;4994460;28;20026;-59
2022/11/12 07:00:33;;;;;;;8.52;7.93;;;;;;;;;;4993163;28;20651;-60
2022/11/12 07:02:59;;;;;;;9.07;8.48;;;;;;;;;;4995167;28;20124;-60
2022/11/12 07:05:24;;;;;;;7.43;6.93;;;;;;;;;;4994054;28;20080;-60
2022/11/12 07:07:49;;;;;;;8.52;7.93;;;;;;;;;;4993853;28;20527;-60
2022/11/12 07:10:15;;;;;;;8.85;8.25;;;;;;;;;;4996522;28;20026;-60
2022/11/12 07:12:40;;;;;;;7.72;7.22;;;;;;;;;;4993459;28;20659;-60
2022/11/12 07:15:06;;;;;;;8.73;8.13;;;;;;;;;;4990216;28;20033;-60
2022/11/12 07:17:31;;;;;;;8.75;8.15;;;;;;;;;;4994019;28;20029;-60
2022/11/12 07:19:56;;;;;;;9.27;8.57;;;;;;;;;;4991106;28;20118;-60
2022/11/12 07:22:22;;;;;;;9.20;8.60;;;;;;;;;;4991184;28;20404;-59
2022/11/12 07:24:47;;;;;;;8.48;7.88;;;;;;;;;;4992067;28;20148;-60
2022/11/12 07:27:13;;;;;;;8.52;7.93;;;;;;;;;;4991617;28;20049;-59
2022/11/12 07:29:38;;;;;;;10.18;9.43;;;;;;;;;;4993544;28;20388;-60
2022/11/12 07:32:04;;;;;;;8.35;7.75;;;;;;;;;;4991590;28;20084;-59
2022/11/12 07:34:29;;;;;;;7.80;7.28;;;;;;;;;;4992383;28;20034;-59
2022/11/12 07:36:54;;;;;;;9.30;8.57;;;;;;;;;;5001232;28;20180;-59
2022/11/12 07:39:20;;;;;;;7.50;7.00;;;;;;;;;;4993083;28;20105;-60
2022/11/12 07:41:45;;;;;;;9.95;9.10;;;;;;;;;;4992088;28;20181;-59
2022/11/12 07:44:10;;;;;;;8.15;7.55;;;;;;;;;;4990826;28;20034;-59
2022/11/12 07:46:36;;;;;;;8.88;8.27;;;;;;;;;;4990452;28;20042;-59
2022/11/12 07:49:01;;;;;;;9.68;8.93;;;;;;;;;;4992032;28;20045;-59
2022/11/12 07:51:28;;;;;;;9.43;8.82;;;;;;;;;;4991411;28;20025;-59
2022/11/12 07:53:56;;;;;;;8.90;8.30;;;;;;;;;;4992325;28;20044;-59
2022/11/12 07:56:23;;;;;;;8.15;7.53;;;;;;;;;;4989096;28;20367;-59
2022/11/12 07:58:50;;;;;;;9.50;8.90;;;;;;;;;;4991019;28;20038;-59
2022/11/12 08:01:33;;;;;;;9.05;8.45;;;;;;;;;;4993089;28;20041;-59
2022/11/12 08:04:00;;;;;;;9.05;8.45;;;;;;;;;;4992285;28;20029;-59
2022/11/12 08:06:27;;;;;;;8.85;8.18;;;;;;;;;;4991831;28;20026;-59
2022/11/12 08:08:53;;;;;;;9.63;8.93;;;;;;;;;;4991873;28;20044;-59
2022/11/12 08:11:19;;;;;;;9.25;8.55;;;;;;;;;;4992804;28;20541;-60
2022/11/12 08:13:45;;;;;;;9.40;8.68;;;;;;;;;;4993124;28;20076;-59
2022/11/12 08:16:10;;;;;;;8.38;7.78;;;;;;;;;;4992271;28;20112;-59
2022/11/12 08:18:36;;;;;;;10.07;9.38;;;;;;;;;;4994551;28;20042;-59
2022/11/12 08:21:03;;;;;;;9.82;9.13;;;;;;;;;;4991786;28;20030;-59
2022/11/12 08:23:29;;;;;;;8.77;8.18;;;;;;;;;;4999392;28;20030;-59
2022/11/12 08:26:03;;;;;;;10.85;10.10;;;;;;;;;;4991656;28;20030;-59
2022/11/12 08:28:30;;;;;;;9.35;8.73;;;;;;;;;;4991838;28;20491;-60
2022/11/12 08:30:56;;;;;;;9.80;9.10;;;;;;;;;;4992339;28;20031;-59
2022/11/12 08:33:21;;;;;;;9.50;8.90;;;;;;;;;;4990716;28;20018;-59
2022/11/12 08:35:47;;;;;;;9.65;9.05;;;;;;;;;;4991735;28;20104;-59
2022/11/12 08:38:13;;;;;;;9.77;9.18;;;;;;;;;;4992077;28;20045;-59
2022/11/12 08:40:39;;;;;;;10.52;9.80;;;;;;;;;;4993017;28;20062;-59
2022/11/12 08:43:08;;;;;;;9.30;8.70;;;;;;;;;;4990248;28;20487;-60
2022/11/12 08:45:36;;;;;;;10.43;9.63;;;;;;;;;;4991165;28;20037;-59
2022/11/12 08:48:05;;;;;;;10.73;10.02;;;;;;;;;;4991149;28;20350;-59
2022/11/12 08:50:30;;;;;;;13.38;12.50;;;;;;;;;;4990028;28;20042;-59
2022/11/12 08:53:05;;;;;;;11.70;10.95;;;;;;;;;;4992897;28;20025;-59
2022/11/12 08:55:32;;;;;;;11.35;10.65;;;;;;;;;;4996085;28;20040;-59
2022/11/12 08:58:00;;;;;;;11.65;10.95;;;;;;;;;;4996097;28;20232;-59
2022/11/12 09:00:27;;;;;;;11.82;11.02;;;;;;;;;;4995120;28;20033;-59
2022/11/12 09:02:52;;;;;;;10.60;9.90;;;;;;;;;;4992768;28;20018;-59
2022/11/12 09:05:18;;;;;;;11.10;10.38;;;;;;;;;;4996747;28;20121;-59
2022/11/12 09:07:43;;;;;;;10.60;9.90;;;;;;;;;;4995506;28;20065;-59
2022/11/12 09:10:08;;;;;;;10.65;9.95;;;;;;;;;;4992681;28;20147;-59
2022/11/12 09:12:34;;;;;;;11.65;10.85;;;;;;;;;;4993618;28;20030;-59
2022/11/12 09:14:59;;;;;;;11.32;10.30;;;;;;;;;;4995630;28;20069;-59
2022/11/12 09:17:25;;;;;;;11.32;10.63;;;;;;;;;;4996463;28;20430;-59
2022/11/12 09:19:50;;;;;;;12.65;11.75;;;;;;;;;;4992269;28;20042;-59
2022/11/12 09:22:15;;;;;;;10.52;9.82;;;;;;;;;;4995381;28;20109;-59
2022/11/12 09:24:41;;;;;;;13.18;12.32;;;;;;;;;;4994920;28;20037;-59
2022/11/12 09:27:06;;;;;;;12.68;11.70;;;;;;;;;;4995156;28;20033;-59
2022/11/12 09:29:31;;;;;;;11.85;11.05;;;;;;;;;;5001896;28;20033;-59
2022/11/12 09:31:58;;;;;;;12.18;11.38;;;;;;;;;;4994115;28;20038;-59
2022/11/12 09:34:24;;;;;;;13.10;12.00;;;;;;;;;;4996594;28;20081;-59
2022/11/12 09:36:49;;;;;;;12.48;11.55;;;;;;;;;;4994351;28;20049;-59
2022/11/12 09:39:15;;;;;;;14.00;13.10;;;;;;;;;;4995147;28;20022;-59
2022/11/12 09:41:41;;;;;;;13.02;12.00;;;;;;;;;;4991634;28;20077;-59
2022/11/12 09:44:17;;;;;;;11.98;11.10;;;;;;;;;;4994431;28;20026;-59
2022/11/12 09:46:45;;;;;;;14.13;12.98;;;;;;;;;;5001803;28;20037;-59
2022/11/12 09:49:52;;;;;;;12.85;12.05;;;;;;;;;;4994207;28;20041;-59
2022/11/12 09:52:25;;;;;;;12.40;11.65;;;;;;;;;;4994753;28;20542;-60
2022/11/12 09:55:04;;;;;;;13.15;11.95;;;;;;;;;;4994934;28;20038;-60
2022/11/12 09:57:31;;;;;;;12.50;11.70;;;;;;;;;;5002753;28;20073;-60
2022/11/12 09:59:57;;;;;;;13.13;12.13;;;;;;;;;;4984261;28;20408;-60
2022/11/12 10:02:41;;;;;;;12.65;11.85;;;;;;;;;;4995297;28;20030;-60
2022/11/12 10:05:14;;;;;;;12.27;11.35;;;;;;;;;;4991188;28;20538;-60
2022/11/12 10:07:53;;;;;;;13.82;12.60;;;;;;;;;;4993655;28;20038;-60
2022/11/12 10:10:38;;;;;;;14.68;13.27;;;;;;;;;;4995896;28;20038;-60
2022/11/12 10:13:26;;;;;;;11.45;10.65;;;;;;;;;;4994290;28;20038;-60
2022/11/12 10:16:43;;;;;;;12.20;11.40;;;;;;;;;;4990796;28;20121;-60
2022/11/12 10:19:08;;;;;;;10.93;10.13;;;;;;;;;;4993544;28;20060;-60
2022/11/12 10:22:09;;;;;;;11.75;10.85;;;;;;;;;;4993067;28;20635;-60
2022/11/12 10:24:37;;;;;;;11.50;10.70;;;;;;;;;;4971346;28;20054;-60
2022/11/12 10:27:15;;;;;;;11.85;11.05;;;;;;;;;;4994641;28;20030;-60
2022/11/12 10:29:46;;;;;;;12.80;11.82;;;;;;;;;;4992920;28;20350;-60
2022/11/12 10:32:13;;;;;;;;;;;;;;;;;;4996307;28;20038;-60
2022/11/12 10:34:39;;;;;;;10.90;10.02;;;;;;;;;;4994175;28;19917;-60
2022/11/12 10:37:15;;;;;;;11.90;11.00;;;;;;;;;;4995367;28;20601;-60
2022/11/12 10:39:44;;;;;;;11.45;10.65;;;;;;;;;;4985269;28;20034;-60
2022/11/12 10:42:13;;;;;;;10.13;9.43;;;;;;;;;;4997592;28;20456;-60
2022/11/12 10:44:39;;;;;;;19.10;17.48;;;;;;;;;;4996445;28;20056;-59
2022/11/12 10:47:25;;;;;;;19.35;17.27;;;;;;;;;;4993301;28;20799;-60
2022/11/12 10:50:09;;;;;;;24.67;21.10;;;;;;;;;;4992523;28;20092;-60
2022/11/12 10:52:34;;;;;;;12.10;11.13;;;;;;;;;;4983433;28;20036;-60
2022/11/12 10:55:14;;;;;;;10.55;9.85;;;;;;;;;;4989810;28;20403;-60
2022/11/12 10:57:39;;;;;;;10.13;9.45;;;;;;;;;;4993270;28;20049;-60
2022/11/12 11:00:13;;;;;;;10.82;10.02;;;;;;;;;;4997559;28;20029;-60
2022/11/12 11:02:46;;;;;;;9.73;9.02;;;;;;;;;;4990047;28;20052;-60
2022/11/12 11:05:44;;;;;;;12.15;11.15;;;;;;;;;;4996416;28;20530;-60
2022/11/12 11:08:10;;;;;;;11.07;10.27;;;;;;;;;;4994898;28;20034;-60
2022/11/12 11:10:36;;;;;;;10.68;9.88;;;;;;;;;;4993632;28;20354;-60
2022/11/12 11:13:15;;;;;;;10.20;9.52;;;;;;;;;;4997439;28;20046;-60
2022/11/12 11:15:57;;;;;;;10.48;9.68;;;;;;;;;;4991405;28;20045;-60
2022/11/12 11:18:22;;;;;;;11.05;10.25;;;;;;;;;;4995741;28;20030;-60
2022/11/12 11:21:00;;;;;;;11.43;10.63;;;;;;;;;;4993523;28;20045;-60
2022/11/12 11:23:34;;;;;;;12.40;11.52;;;;;;;;;;4991977;28;20041;-60
2022/11/12 11:26:13;;;;;;;12.18;11.27;;;;;;;;;;4991800;28;20034;-60
2022/11/12 11:28:50;;;;;;;10.93;10.20;;;;;;;;;;4992006;28;20092;-60
2022/11/12 11:31:36;;;;;;;11.73;10.68;;;;;;;;;;4989653;28;20041;-60
2022/11/12 11:34:19;;;;;;;12.48;11.57;;;;;;;;;;4993768;28;20034;-61
2022/11/12 11:37:03;;;;;;;12.90;11.98;;;;;;;;;;4993768;28;20042;-60
2022/11/12 11:39:47;;;;;;;10.45;9.75;;;;;;;;;;4993899;28;20025;-61
2022/11/12 11:42:48;;;;;;;10.63;9.85;;;;;;;;;;4993181;28;20092;-62
2022/11/12 11:45:35;;;;;;;10.52;9.80;;;;;;;;;;4989524;28;20039;-63
2022/11/12 11:48:14;;;;;;;10.43;9.73;;;;;;;;;;4991603;28;20034;-62
2022/11/12 11:51:15;;;;;;;10.85;10.05;;;;;;;;;;4991706;28;20031;-62
2022/11/12 11:54:00;;;;;;;11.50;10.18;;;;;;;;;;4987434;28;20045;-62
2022/11/12 11:56:32;;;;;;;11.32;10.52;;;;;;;;;;4994358;28;20042;-62
2022/11/12 11:59:35;;;;;;;11.38;10.50;;;;;;;;;;4992681;28;20622;-62
2022/11/12 12:02:21;;;;;;;10.23;9.52;;;;;;;;;;4990790;28;20034;-63
2022/11/12 12:04:56;;;;;;;11.40;10.50;;;;;;;;;;4991640;28;20515;-62
2022/11/12 12:07:39;;;;;;;10.07;9.38;;;;;;;;;;4994646;28;20037;-62
2022/11/12 12:10:11;;;;;;;11.75;10.95;;;;;;;;;;4993414;28;20049;-62
2022/11/12 12:12:56;;;;;;;11.18;10.38;;;;;;;;;;4993335;28;20041;-62
2022/11/12 12:15:39;;;;;;;10.10;9.30;;;;;;;;;;4992908;28;20117;-61
2022/11/12 12:18:49;;;;;;;11.50;10.40;;;;;;;;;;4992633;28;20034;-61
2022/11/12 12:21:17;;;;;;;10.65;9.90;;;;;;;;;;4982170;28;20375;-61
2022/11/12 12:23:47;;;;;;;10.52;9.82;;;;;;;;;;4991856;28;20100;-61
2022/11/12 12:26:17;;;;;;;10.60;9.90;;;;;;;;;;4991017;28;20030;-61
2022/11/12 12:28:55;;;;;;;11.40;10.60;;;;;;;;;;4994638;28;20030;-61
2022/11/12 12:31:28;;;;;;;9.75;9.05;;;;;;;;;;4996126;28;20044;-61
2022/11/12 12:34:05;;;;;;;9.70;8.90;;;;;;;;;;4994358;28;20022;-61
2022/11/12 12:36:35;;;;;;;10.02;9.25;;;;;;;;;;4998156;28;20030;-61
2022/11/12 12:39:17;;;;;;;11.23;10.20;;;;;;;;;;4995932;28;20022;-61
2022/11/12 12:41:54;;;;;;;10.85;10.05;;;;;;;;;;4996831;28;20726;-61
2022/11/12 12:44:19;;;;;;;10.30;9.50;;;;;;;;;;4996849;28;20037;-61
2022/11/12 12:46:56;;;;;;;10.77;9.93;;;;;;;;;;4994917;28;20444;-61
2022/11/12 12:49:35;;;;;;;10.68;9.98;;;;;;;;;;4996414;28;20026;-61
2022/11/12 12:52:01;;;;;;;10.38;9.68;;;;;;;;;;4996502;28;20026;-61
2022/11/12 12:54:50;;;;;;;10.77;10.07;;;;;;;;;;4992426;28;20052;-61
2022/11/12 12:57:30;;;;;;;11.75;10.95;;;;;;;;;;4994775;28;20038;-62
2022/11/12 13:00:25;;;;;;;11.73;10.85;;;;;;;;;;4995994;28;20042;-63
2022/11/12 13:02:51;;;;;;;11.05;10.25;;;;;;;;;;4989121;28;20050;-60
2022/11/12 13:05:28;;;;;;;12.07;11.18;;;;;;;;;;4996578;28;20088;-62
2022/11/12 13:07:57;;;;;;;12.68;11.55;;;;;;;;;;4995659;28;20038;-62
2022/11/12 13:10:38;;;;;;;10.98;10.07;;;;;;;;;;4993585;28;20060;-61
2022/11/12 13:13:22;;;;;;;11.98;10.95;;;;;;;;;;4998174;28;20057;-63
2022/11/12 13:15:54;;;;;;;11.70;10.70;;;;;;;;;;4999125;28;20037;-61
2022/11/12 13:18:41;;;;;;;12.35;11.45;;;;;;;;;;4994094;28;20477;-63
2022/11/12 13:21:17;;;;;;;11.07;10.27;;;;;;;;;;4991298;28;20088;-62
2022/11/12 13:24:06;;;;;;;11.38;10.57;;;;;;;;;;4994837;28;20056;-61
2022/11/12 13:26:45;;;;;;;11.18;10.18;;;;;;;;;;4994358;28;20419;-62
2022/11/12 13:29:23;;;;;;;10.95;10.15;;;;;;;;;;4992950;28;20098;-62
2022/11/12 13:32:09;;;;;;;11.90;11.10;;;;;;;;;;4996405;28;20081;-62
2022/11/12 13:34:34;;;;;;;11.98;11.05;;;;;;;;;;4995868;28;20085;-62
2022/11/12 13:37:04;;;;;;;12.25;10.75;;;;;;;;;;4996056;28;20033;-62
2022/11/12 13:39:35;;;;;;;12.82;11.98;;;;;;;;;;5002481;28;20021;-61
2022/11/12 13:44:57;;;;;;;11.77;10.95;;;;;;;;;;4996928;28;20050;-62
2022/11/12 13:47:25;;;;;;;11.60;10.73;;;;;;;;;;4991670;28;20522;-62
2022/11/12 13:49:50;;;;;;;10.52;9.82;;;;;;;;;;4995163;28;20049;-61
2022/11/12 13:52:18;;;;;;;10.77;10.05;;;;;;;;;;4995980;28;20026;-61
2022/11/12 13:54:43;;;;;;;11.38;10.48;;;;;;;;;;4992313;28;20034;-62
2022/11/12 13:57:26;;;;;;;10.50;9.80;;;;;;;;;;4996084;28;20030;-62
2022/11/12 14:00:16;;;;;;;11.27;10.40;;;;;;;;;;5000306;28;20638;-61
2022/11/12 14:02:45;;;;;;;12.47;11.57;;;;;;;;;;4992215;28;20030;-61
2022/11/12 14:05:19;;;;;;;11.23;10.32;;;;;;;;;;4995007;28;20030;-61
2022/11/12 14:07:50;;;;;;;10.73;9.93;;;;;;;;;;4994612;28;20041;-61
2022/11/12 14:10:33;;;;;;;10.65;9.85;;;;;;;;;;4995534;28;20033;-62
2022/11/12 14:13:20;;;;;;;11.05;10.25;;;;;;;;;;5007649;28;20104;-66
2022/11/12 14:16:10;;;;;;;11.52;10.57;;;;;;;;;;4996167;28;20126;-65
2022/11/12 14:19:01;;;;;;;10.95;10.20;;;;;;;;;;4995416;28;20038;-64
2022/11/12 14:21:26;;;;;;;;;;;;;;;;;;4989964;28;20046;-67
2022/11/12 14:23:52;;;;;;;11.30;10.38;;;;;;;;;;4994698;28;20311;-68
2022/11/12 14:26:40;;;;;;;11.18;10.27;;;;;;;;;;4994362;28;20077;-67
2022/11/12 14:29:05;;;;;;;11.05;10.25;;;;;;;;;;4993481;28;20057;-65
2022/11/12 14:31:31;;;;;;;10.13;9.32;;;;;;;;;;4998126;28;20500;-66
2022/11/12 14:34:26;;;;;;;11.75;10.75;;;;;;;;;;4995977;28;20040;-67
2022/11/12 14:36:54;;;;;;;11.75;10.85;;;;;;;;;;4993358;28;20101;-64
2022/11/12 14:39:21;;;;;;;11.27;10.55;;;;;;;;;;4996405;28;20052;-65
2022/11/12 14:41:49;;;;;;;11.65;10.82;;;;;;;;;;4992314;28;20026;-67
2022/11/12 14:44:35;;;;;;;10.88;10.07;;;;;;;;;;4994031;28;20034;-65
2022/11/12 14:47:00;;;;;;;10.82;10.02;;;;;;;;;;4993279;28;20038;-66
2022/11/12 14:49:33;;;;;;;10.35;9.63;;;;;;;;;;4992047;28;20330;-66
2022/11/12 14:52:07;;;;;;;9.95;9.23;;;;;;;;;;4993102;28;20760;-66
2022/11/12 14:54:38;;;;;;;11.70;10.85;;;;;;;;;;4994171;28;20172;-65
2022/11/12 14:57:04;;;;;;;11.65;10.77;;;;;;;;;;4993349;28;20034;-65
2022/11/12 14:59:31;;;;;;;10.15;9.43;;;;;;;;;;4995005;28;20034;-65
2022/11/12 15:02:13;;;;;;;12.05;11.15;;;;;;;;;;4993910;28;20046;-65
2022/11/12 15:05:03;;;;;;;11.32;10.40;;;;;;;;;;4990362;28;20065;-64
2022/11/12 15:07:32;;;;;;;9.48;8.88;;;;;;;;;;4990353;28;20439;-66
2022/11/12 15:09:58;;;;;;;10.13;9.43;;;;;;;;;;4989812;28;20526;-67
2022/11/12 15:12:27;;;;;;;11.25;10.40;;;;;;;;;;4998474;28;20033;-66
2022/11/12 15:15:05;;;;;;;11.93;10.93;;;;;;;;;;4990182;28;20133;-66
2022/11/12 15:17:33;;;;;;;12.13;11.05;;;;;;;;;;4991310;28;20045;-64